sensor_id;sensor_type;location;lat;lon;timestamp;temperature;humidity
74416;SHT31;62850;42.428;25.618;2023-04-06T00:00:36;7.33;77.87
74416;SHT31;62850;42.428;25.618;2023-04-06T00:03:02;7.39;77.55
74416;SHT31;62850;42.428;25.618;2023-04-06T00:05:28;7.35;77.49
74416;SHT31;62850;42.428;25.618;2023-04-06T00:07:57;7.33;78.06
74416;SHT31;62850;42.428;25.618;2023-04-06T00:10:22;7.15;78.72
74416;SHT31;62850;42.428;25.618;2023-04-06T00:12:48;7.18;79.05
74416;SHT31;62850;42.428;25.618;2023-04-06T00:15:13;7.11;79.14
74416;SHT31;62850;42.428;25.618;2023-04-06T00:17:39;7.05;78.81
74416;SHT31;62850;42.428;25.618;2023-04-06T00:20:04;6.97;78.59
74416;SHT31;62850;42.428;25.618;2023-04-06T00:22:30;6.94;78.09
74416;SHT31;62850;42.428;25.618;2023-04-06T00:24:56;6.76;78.68
74416;SHT31;62850;42.428;25.618;2023-04-06T00:27:21;6.76;78.70
74416;SHT31;62850;42.428;25.618;2023-04-06T00:29:47;6.66;79.13
74416;SHT31;62850;42.428;25.618;2023-04-06T00:32:12;6.67;78.69
74416;SHT31;62850;42.428;25.618;2023-04-06T00:34:38;6.63;78.29
74416;SHT31;62850;42.428;25.618;2023-04-06T00:37:03;6.61;78.64
74416;SHT31;62850;42.428;25.618;2023-04-06T00:39:29;6.53;79.23
74416;SHT31;62850;42.428;25.618;2023-04-06T00:41:55;6.58;78.56
74416;SHT31;62850;42.428;25.618;2023-04-06T00:44:21;6.47;78.93
74416;SHT31;62850;42.428;25.618;2023-04-06T00:46:47;6.37;79.27
74416;SHT31;62850;42.428;25.618;2023-04-06T00:49:12;6.18;79.65
74416;SHT31;62850;42.428;25.618;2023-04-06T00:51:38;6.13;80.28
74416;SHT31;62850;42.428;25.618;2023-04-06T00:54:04;6.15;80.11
74416;SHT31;62850;42.428;25.618;2023-04-06T00:56:31;6.18;79.29
74416;SHT31;62850;42.428;25.618;2023-04-06T00:58:56;6.09;79.80
74416;SHT31;62850;42.428;25.618;2023-04-06T01:01:23;6.11;79.30
74416;SHT31;62850;42.428;25.618;2023-04-06T01:03:48;6.18;79.23
74416;SHT31;62850;42.428;25.618;2023-04-06T01:06:15;6.33;78.53
74416;SHT31;62850;42.428;25.618;2023-04-06T01:08:41;6.32;79.09
74416;SHT31;62850;42.428;25.618;2023-04-06T01:11:06;6.30;79.71
74416;SHT31;62850;42.428;25.618;2023-04-06T01:13:32;6.29;79.96
74416;SHT31;62850;42.428;25.618;2023-04-06T01:15:57;6.29;79.39
74416;SHT31;62850;42.428;25.618;2023-04-06T01:18:27;6.22;79.12
74416;SHT31;62850;42.428;25.618;2023-04-06T01:20:53;6.21;79.37
74416;SHT31;62850;42.428;25.618;2023-04-06T01:23:18;6.11;79.38
74416;SHT31;62850;42.428;25.618;2023-04-06T01:25:44;6.05;79.63
74416;SHT31;62850;42.428;25.618;2023-04-06T01:28:09;5.99;79.93
74416;SHT31;62850;42.428;25.618;2023-04-06T01:30:35;5.99;79.90
74416;SHT31;62850;42.428;25.618;2023-04-06T01:33:00;5.99;79.32
74416;SHT31;62850;42.428;25.618;2023-04-06T01:35:27;5.98;79.29
74416;SHT31;62850;42.428;25.618;2023-04-06T01:37:53;5.94;79.24
74416;SHT31;62850;42.428;25.618;2023-04-06T01:40:18;5.87;80.03
74416;SHT31;62850;42.428;25.618;2023-04-06T01:42:44;5.71;80.39
74416;SHT31;62850;42.428;25.618;2023-04-06T01:45:10;5.62;81.14
74416;SHT31;62850;42.428;25.618;2023-04-06T01:47:35;5.61;81.07
74416;SHT31;62850;42.428;25.618;2023-04-06T01:50:01;5.62;81.21
74416;SHT31;62850;42.428;25.618;2023-04-06T01:52:28;5.62;81.20
74416;SHT31;62850;42.428;25.618;2023-04-06T01:54:53;5.55;81.73
74416;SHT31;62850;42.428;25.618;2023-04-06T01:57:19;5.64;81.90
74416;SHT31;62850;42.428;25.618;2023-04-06T01:59:45;5.50;81.83
74416;SHT31;62850;42.428;25.618;2023-04-06T02:02:11;5.48;81.62
74416;SHT31;62850;42.428;25.618;2023-04-06T02:04:38;5.53;81.81
74416;SHT31;62850;42.428;25.618;2023-04-06T02:07:03;5.61;81.61
74416;SHT31;62850;42.428;25.618;2023-04-06T02:09:29;5.48;81.86
74416;SHT31;62850;42.428;25.618;2023-04-06T02:11:54;5.43;81.56
74416;SHT31;62850;42.428;25.618;2023-04-06T02:14:23;5.47;81.43
74416;SHT31;62850;42.428;25.618;2023-04-06T02:16:49;5.50;81.39
74416;SHT31;62850;42.428;25.618;2023-04-06T02:19:14;5.50;81.47
74416;SHT31;62850;42.428;25.618;2023-04-06T02:21:40;5.58;81.80
74416;SHT31;62850;42.428;25.618;2023-04-06T02:24:06;5.62;81.84
74416;SHT31;62850;42.428;25.618;2023-04-06T02:26:31;5.72;81.48
74416;SHT31;62850;42.428;25.618;2023-04-06T02:28:57;5.79;81.29
74416;SHT31;62850;42.428;25.618;2023-04-06T02:31:22;5.84;80.98
74416;SHT31;62850;42.428;25.618;2023-04-06T02:33:48;5.88;80.84
74416;SHT31;62850;42.428;25.618;2023-04-06T02:36:13;5.92;80.50
74416;SHT31;62850;42.428;25.618;2023-04-06T02:38:38;5.85;80.53
74416;SHT31;62850;42.428;25.618;2023-04-06T02:41:04;5.88;80.82
74416;SHT31;62850;42.428;25.618;2023-04-06T02:43:30;5.95;80.57
74416;SHT31;62850;42.428;25.618;2023-04-06T02:45:56;6.02;80.48
74416;SHT31;62850;42.428;25.618;2023-04-06T02:48:21;5.98;80.38
74416;SHT31;62850;42.428;25.618;2023-04-06T02:50:47;5.92;80.56
74416;SHT31;62850;42.428;25.618;2023-04-06T02:53:12;5.84;80.34
74416;SHT31;62850;42.428;25.618;2023-04-06T02:55:38;5.94;79.60
74416;SHT31;62850;42.428;25.618;2023-04-06T02:58:03;5.99;79.34
74416;SHT31;62850;42.428;25.618;2023-04-06T03:00:28;5.90;79.74
74416;SHT31;62850;42.428;25.618;2023-04-06T03:02:54;5.82;80.03
74416;SHT31;62850;42.428;25.618;2023-04-06T03:05:20;5.88;79.66
74416;SHT31;62850;42.428;25.618;2023-04-06T03:07:45;5.85;79.44
74416;SHT31;62850;42.428;25.618;2023-04-06T03:10:11;5.77;80.34
74416;SHT31;62850;42.428;25.618;2023-04-06T03:12:36;5.72;80.87
74416;SHT31;62850;42.428;25.618;2023-04-06T03:15:02;5.51;81.23
74416;SHT31;62850;42.428;25.618;2023-04-06T03:17:28;5.48;81.35
74416;SHT31;62850;42.428;25.618;2023-04-06T03:19:53;5.46;81.00
74416;SHT31;62850;42.428;25.618;2023-04-06T03:22:19;5.41;81.03
74416;SHT31;62850;42.428;25.618;2023-04-06T03:24:45;5.47;80.84
74416;SHT31;62850;42.428;25.618;2023-04-06T03:27:11;5.40;79.96
74416;SHT31;62850;42.428;25.618;2023-04-06T03:29:36;5.22;80.29
74416;SHT31;62850;42.428;25.618;2023-04-06T03:32:02;5.13;80.86
74416;SHT31;62850;42.428;25.618;2023-04-06T03:34:27;5.10;81.50
74416;SHT31;62850;42.428;25.618;2023-04-06T03:36:53;5.12;81.64
74416;SHT31;62850;42.428;25.618;2023-04-06T03:39:18;5.10;80.81
74416;SHT31;62850;42.428;25.618;2023-04-06T03:41:44;5.08;80.53
74416;SHT31;62850;42.428;25.618;2023-04-06T03:44:10;5.13;80.66
74416;SHT31;62850;42.428;25.618;2023-04-06T03:46:35;5.20;79.76
74416;SHT31;62850;42.428;25.618;2023-04-06T03:49:01;5.18;80.34
74416;SHT31;62850;42.428;25.618;2023-04-06T03:51:27;5.10;80.32
74416;SHT31;62850;42.428;25.618;2023-04-06T03:53:52;5.16;80.69
74416;SHT31;62850;42.428;25.618;2023-04-06T03:56:18;5.18;80.70
74416;SHT31;62850;42.428;25.618;2023-04-06T03:58:43;5.15;81.19
74416;SHT31;62850;42.428;25.618;2023-04-06T04:01:10;5.24;81.25
74416;SHT31;62850;42.428;25.618;2023-04-06T04:03:36;5.22;80.80
74416;SHT31;62850;42.428;25.618;2023-04-06T04:06:01;5.22;80.70
74416;SHT31;62850;42.428;25.618;2023-04-06T04:08:27;5.19;80.97
74416;SHT31;62850;42.428;25.618;2023-04-06T04:10:52;5.27;80.82
74416;SHT31;62850;42.428;25.618;2023-04-06T04:13:18;5.23;81.62
74416;SHT31;62850;42.428;25.618;2023-04-06T04:15:44;5.34;81.12
74416;SHT31;62850;42.428;25.618;2023-04-06T04:18:09;5.36;80.66
74416;SHT31;62850;42.428;25.618;2023-04-06T04:20:35;5.30;80.91
74416;SHT31;62850;42.428;25.618;2023-04-06T04:23:00;5.41;80.38
74416;SHT31;62850;42.428;25.618;2023-04-06T04:25:26;5.50;80.15
74416;SHT31;62850;42.428;25.618;2023-04-06T04:27:51;5.40;80.27
74416;SHT31;62850;42.428;25.618;2023-04-06T04:30:17;5.48;78.74
74416;SHT31;62850;42.428;25.618;2023-04-06T04:32:42;5.53;78.20
74416;SHT31;62850;42.428;25.618;2023-04-06T04:35:08;5.50;78.15
74416;SHT31;62850;42.428;25.618;2023-04-06T04:37:33;5.47;78.72
74416;SHT31;62850;42.428;25.618;2023-04-06T04:40:00;5.44;78.75
74416;SHT31;62850;42.428;25.618;2023-04-06T04:42:25;5.53;78.17
74416;SHT31;62850;42.428;25.618;2023-04-06T04:44:51;5.68;77.07
74416;SHT31;62850;42.428;25.618;2023-04-06T04:47:17;5.77;77.24
74416;SHT31;62850;42.428;25.618;2023-04-06T04:49:42;5.79;77.74
74416;SHT31;62850;42.428;25.618;2023-04-06T04:52:08;5.88;77.90
74416;SHT31;62850;42.428;25.618;2023-04-06T04:54:33;5.87;77.29
74416;SHT31;62850;42.428;25.618;2023-04-06T04:56:59;5.84;76.76
74416;SHT31;62850;42.428;25.618;2023-04-06T04:59:24;5.85;77.16
74416;SHT31;62850;42.428;25.618;2023-04-06T05:01:49;5.92;77.43
74416;SHT31;62850;42.428;25.618;2023-04-06T05:04:15;6.09;77.38
74416;SHT31;62850;42.428;25.618;2023-04-06T05:06:40;6.03;78.45
74416;SHT31;62850;42.428;25.618;2023-04-06T05:09:06;6.06;78.18
74416;SHT31;62850;42.428;25.618;2023-04-06T05:11:31;6.11;77.99
74416;SHT31;62850;42.428;25.618;2023-04-06T05:13:57;6.19;77.66
74416;SHT31;62850;42.428;25.618;2023-04-06T05:16:22;6.30;77.24
74416;SHT31;62850;42.428;25.618;2023-04-06T05:18:48;6.42;77.09
74416;SHT31;62850;42.428;25.618;2023-04-06T05:21:14;6.43;76.58
74416;SHT31;62850;42.428;25.618;2023-04-06T05:23:39;6.51;75.30
74416;SHT31;62850;42.428;25.618;2023-04-06T05:26:05;6.57;75.07
74416;SHT31;62850;42.428;25.618;2023-04-06T05:28:31;6.58;74.97
74416;SHT31;62850;42.428;25.618;2023-04-06T05:30:57;6.73;74.53
74416;SHT31;62850;42.428;25.618;2023-04-06T05:33:23;6.77;75.03
74416;SHT31;62850;42.428;25.618;2023-04-06T05:35:49;6.81;75.09
74416;SHT31;62850;42.428;25.618;2023-04-06T05:38:14;6.85;74.80
74416;SHT31;62850;42.428;25.618;2023-04-06T05:40:40;6.83;75.23
74416;SHT31;62850;42.428;25.618;2023-04-06T05:43:07;6.87;74.96
74416;SHT31;62850;42.428;25.618;2023-04-06T05:45:33;6.74;74.18
74416;SHT31;62850;42.428;25.618;2023-04-06T05:47:58;6.66;74.17
74416;SHT31;62850;42.428;25.618;2023-04-06T05:50:24;6.61;72.17
74416;SHT31;62850;42.428;25.618;2023-04-06T05:52:50;6.74;72.19
74416;SHT31;62850;42.428;25.618;2023-04-06T05:55:15;6.81;72.68
74416;SHT31;62850;42.428;25.618;2023-04-06T05:57:41;6.97;72.21
74416;SHT31;62850;42.428;25.618;2023-04-06T06:00:07;7.08;72.08
74416;SHT31;62850;42.428;25.618;2023-04-06T06:02:34;7.21;71.87
74416;SHT31;62850;42.428;25.618;2023-04-06T06:05:00;7.16;71.14
74416;SHT31;62850;42.428;25.618;2023-04-06T06:07:26;7.19;71.64
74416;SHT31;62850;42.428;25.618;2023-04-06T06:09:51;7.16;71.55
74416;SHT31;62850;42.428;25.618;2023-04-06T06:12:17;7.29;71.89
74416;SHT31;62850;42.428;25.618;2023-04-06T06:14:42;7.38;71.49
74416;SHT31;62850;42.428;25.618;2023-04-06T06:17:08;7.43;71.43
74416;SHT31;62850;42.428;25.618;2023-04-06T06:19:34;7.42;71.03
74416;SHT31;62850;42.428;25.618;2023-04-06T06:21:59;7.49;70.91
74416;SHT31;62850;42.428;25.618;2023-04-06T06:24:27;7.66;71.14
74416;SHT31;62850;42.428;25.618;2023-04-06T06:26:53;7.79;70.52
74416;SHT31;62850;42.428;25.618;2023-04-06T06:29:18;7.87;69.84
74416;SHT31;62850;42.428;25.618;2023-04-06T06:31:44;7.89;69.32
74416;SHT31;62850;42.428;25.618;2023-04-06T06:34:09;8.11;69.04
74416;SHT31;62850;42.428;25.618;2023-04-06T06:36:35;8.28;68.62
74416;SHT31;62850;42.428;25.618;2023-04-06T06:39:01;8.35;68.63
74416;SHT31;62850;42.428;25.618;2023-04-06T06:41:28;8.42;68.20
74416;SHT31;62850;42.428;25.618;2023-04-06T06:43:54;8.53;68.45
74416;SHT31;62850;42.428;25.618;2023-04-06T06:46:20;8.46;67.79
74416;SHT31;62850;42.428;25.618;2023-04-06T06:48:45;8.37;67.72
74416;SHT31;62850;42.428;25.618;2023-04-06T06:51:11;8.34;67.34
74416;SHT31;62850;42.428;25.618;2023-04-06T06:53:37;8.51;66.36
74416;SHT31;62850;42.428;25.618;2023-04-06T06:56:03;8.53;67.10
74416;SHT31;62850;42.428;25.618;2023-04-06T06:58:28;8.46;66.28
74416;SHT31;62850;42.428;25.618;2023-04-06T07:00:57;8.53;67.37
74416;SHT31;62850;42.428;25.618;2023-04-06T07:03:23;8.42;65.85
74416;SHT31;62850;42.428;25.618;2023-04-06T07:05:49;8.51;65.82
74416;SHT31;62850;42.428;25.618;2023-04-06T07:08:21;8.48;66.58
74416;SHT31;62850;42.428;25.618;2023-04-06T07:10:48;8.34;66.71
74416;SHT31;62850;42.428;25.618;2023-04-06T07:13:14;8.41;66.77
74416;SHT31;62850;42.428;25.618;2023-04-06T07:15:47;8.37;66.44
74416;SHT31;62850;42.428;25.618;2023-04-06T07:18:13;8.53;67.04
74416;SHT31;62850;42.428;25.618;2023-04-06T07:20:39;8.59;66.86
74416;SHT31;62850;42.428;25.618;2023-04-06T07:23:05;8.84;66.79
74416;SHT31;62850;42.428;25.618;2023-04-06T07:25:30;9.07;66.49
74416;SHT31;62850;42.428;25.618;2023-04-06T07:27:56;9.23;65.77
74416;SHT31;62850;42.428;25.618;2023-04-06T07:30:21;9.07;65.52
74416;SHT31;62850;42.428;25.618;2023-04-06T07:32:47;9.19;65.23
74416;SHT31;62850;42.428;25.618;2023-04-06T07:35:14;9.42;63.92
74416;SHT31;62850;42.428;25.618;2023-04-06T07:37:39;9.58;63.75
74416;SHT31;62850;42.428;25.618;2023-04-06T07:40:05;9.49;63.91
74416;SHT31;62850;42.428;25.618;2023-04-06T07:42:31;9.28;64.19
74416;SHT31;62850;42.428;25.618;2023-04-06T07:44:58;9.38;64.53
74416;SHT31;62850;42.428;25.618;2023-04-06T07:47:23;9.49;63.14
74416;SHT31;62850;42.428;25.618;2023-04-06T07:49:49;9.61;63.50
74416;SHT31;62850;42.428;25.618;2023-04-06T07:52:15;9.83;62.73
74416;SHT31;62850;42.428;25.618;2023-04-06T07:54:41;10.17;61.23
74416;SHT31;62850;42.428;25.618;2023-04-06T07:57:07;10.24;60.88
74416;SHT31;62850;42.428;25.618;2023-04-06T07:59:32;10.24;61.69
74416;SHT31;62850;42.428;25.618;2023-04-06T08:01:58;10.12;61.32
74416;SHT31;62850;42.428;25.618;2023-04-06T08:04:23;10.12;60.94
74416;SHT31;62850;42.428;25.618;2023-04-06T08:06:48;10.26;60.52
74416;SHT31;62850;42.428;25.618;2023-04-06T08:09:14;10.64;59.70
74416;SHT31;62850;42.428;25.618;2023-04-06T08:11:40;10.99;58.18
74416;SHT31;62850;42.428;25.618;2023-04-06T08:14:05;11.37;57.24
74416;SHT31;62850;42.428;25.618;2023-04-06T08:16:31;11.84;56.00
74416;SHT31;62850;42.428;25.618;2023-04-06T08:18:56;12.34;54.02
74416;SHT31;62850;42.428;25.618;2023-04-06T08:21:22;12.24;53.79
74416;SHT31;62850;42.428;25.618;2023-04-06T08:23:47;11.99;54.53
74416;SHT31;62850;42.428;25.618;2023-04-06T08:26:13;11.99;54.69
74416;SHT31;62850;42.428;25.618;2023-04-06T08:28:38;11.80;54.33
74416;SHT31;62850;42.428;25.618;2023-04-06T08:31:07;11.40;54.30
74416;SHT31;62850;42.428;25.618;2023-04-06T08:33:33;11.33;55.35
74416;SHT31;62850;42.428;25.618;2023-04-06T08:36:11;11.20;56.42
74416;SHT31;62850;42.428;25.618;2023-04-06T08:38:37;10.79;56.57
74416;SHT31;62850;42.428;25.618;2023-04-06T08:41:27;10.54;58.17
74416;SHT31;62850;42.428;25.618;2023-04-06T08:44:00;10.48;57.87
74416;SHT31;62850;42.428;25.618;2023-04-06T08:46:27;10.30;57.76
74416;SHT31;62850;42.428;25.618;2023-04-06T08:48:58;10.09;57.91
74416;SHT31;62850;42.428;25.618;2023-04-06T08:51:24;9.92;57.98
74416;SHT31;62850;42.428;25.618;2023-04-06T08:53:54;10.00;57.96
74416;SHT31;62850;42.428;25.618;2023-04-06T08:56:21;9.95;58.20
74416;SHT31;62850;42.428;25.618;2023-04-06T08:58:47;9.92;58.37
74416;SHT31;62850;42.428;25.618;2023-04-06T09:01:14;9.89;59.01
74416;SHT31;62850;42.428;25.618;2023-04-06T09:03:42;10.00;58.63
74416;SHT31;62850;42.428;25.618;2023-04-06T09:06:08;9.95;59.13
74416;SHT31;62850;42.428;25.618;2023-04-06T09:08:36;10.08;58.45
74416;SHT31;62850;42.428;25.618;2023-04-06T09:11:02;10.26;58.02
74416;SHT31;62850;42.428;25.618;2023-04-06T09:13:28;11.05;55.78
74416;SHT31;62850;42.428;25.618;2023-04-06T09:16:04;11.67;53.57
74416;SHT31;62850;42.428;25.618;2023-04-06T09:18:31;12.13;52.87
74416;SHT31;62850;42.428;25.618;2023-04-06T09:21:02;12.22;51.89
74416;SHT31;62850;42.428;25.618;2023-04-06T09:23:46;12.05;51.66
74416;SHT31;62850;42.428;25.618;2023-04-06T09:26:16;11.77;52.00
74416;SHT31;62850;42.428;25.618;2023-04-06T09:31:11;11.76;53.11
74416;SHT31;62850;42.428;25.618;2023-04-06T09:33:41;11.60;53.19
74416;SHT31;62850;42.428;25.618;2023-04-06T09:36:07;11.44;52.86
74416;SHT31;62850;42.428;25.618;2023-04-06T09:38:52;11.39;53.61
74416;SHT31;62850;42.428;25.618;2023-04-06T09:41:27;11.18;53.90
74416;SHT31;62850;42.428;25.618;2023-04-06T09:44:03;11.09;54.77
74416;SHT31;62850;42.428;25.618;2023-04-06T09:46:31;11.14;53.77
74416;SHT31;62850;42.428;25.618;2023-04-06T09:48:58;11.06;53.99
74416;SHT31;62850;42.428;25.618;2023-04-06T09:51:26;11.26;53.98
74416;SHT31;62850;42.428;25.618;2023-04-06T09:53:57;11.66;53.10
74416;SHT31;62850;42.428;25.618;2023-04-06T09:56:27;12.24;52.05
74416;SHT31;62850;42.428;25.618;2023-04-06T09:58:57;12.17;51.25
74416;SHT31;62850;42.428;25.618;2023-04-06T10:01:32;12.17;51.00
74416;SHT31;62850;42.428;25.618;2023-04-06T10:06:28;12.38;50.20
74416;SHT31;62850;42.428;25.618;2023-04-06T10:08:58;12.17;50.83
74416;SHT31;62850;42.428;25.618;2023-04-06T10:11:24;12.25;51.06
74416;SHT31;62850;42.428;25.618;2023-04-06T10:13:50;12.08;50.94
74416;SHT31;62850;42.428;25.618;2023-04-06T10:16:17;12.02;50.81
74416;SHT31;62850;42.428;25.618;2023-04-06T10:18:51;11.90;50.45
74416;SHT31;62850;42.428;25.618;2023-04-06T10:21:21;12.21;50.21
74416;SHT31;62850;42.428;25.618;2023-04-06T10:23:59;12.10;51.28
74416;SHT31;62850;42.428;25.618;2023-04-06T10:26:25;12.17;51.22
74416;SHT31;62850;42.428;25.618;2023-04-06T10:28:51;12.01;51.79
74416;SHT31;62850;42.428;25.618;2023-04-06T10:31:25;12.08;51.22
74416;SHT31;62850;42.428;25.618;2023-04-06T10:36:26;12.17;51.01
74416;SHT31;62850;42.428;25.618;2023-04-06T10:39:05;12.18;50.29
74416;SHT31;62850;42.428;25.618;2023-04-06T10:41:36;12.13;50.41
74416;SHT31;62850;42.428;25.618;2023-04-06T10:44:02;12.07;50.80
74416;SHT31;62850;42.428;25.618;2023-04-06T10:46:29;12.10;51.18
74416;SHT31;62850;42.428;25.618;2023-04-06T10:48:56;12.22;51.42
74416;SHT31;62850;42.428;25.618;2023-04-06T10:51:26;12.25;50.25
74416;SHT31;62850;42.428;25.618;2023-04-06T10:53:53;12.25;50.57
74416;SHT31;62850;42.428;25.618;2023-04-06T10:56:23;12.25;50.23
74416;SHT31;62850;42.428;25.618;2023-04-06T10:58:53;12.21;49.71
74416;SHT31;62850;42.428;25.618;2023-04-06T11:01:20;12.17;49.87
74416;SHT31;62850;42.428;25.618;2023-04-06T11:03:48;12.39;50.51
74416;SHT31;62850;42.428;25.618;2023-04-06T11:06:23;12.94;48.68
74416;SHT31;62850;42.428;25.618;2023-04-06T11:08:50;13.51;46.85
74416;SHT31;62850;42.428;25.618;2023-04-06T11:11:18;14.03;45.87
74416;SHT31;62850;42.428;25.618;2023-04-06T11:16:18;13.65;45.46
74416;SHT31;62850;42.428;25.618;2023-04-06T11:19:09;13.73;46.33
74416;SHT31;62850;42.428;25.618;2023-04-06T11:21:39;13.82;45.54
74416;SHT31;62850;42.428;25.618;2023-04-06T11:24:17;13.73;44.60
74416;SHT31;62850;42.428;25.618;2023-04-06T11:26:48;13.85;44.62
74416;SHT31;62850;42.428;25.618;2023-04-06T11:31:47;13.83;45.82
74416;SHT31;62850;42.428;25.618;2023-04-06T11:34:19;13.81;45.88
74416;SHT31;62850;42.428;25.618;2023-04-06T11:36:46;13.76;46.82
74416;SHT31;62850;42.428;25.618;2023-04-06T11:39:13;13.66;46.05
74416;SHT31;62850;42.428;25.618;2023-04-06T11:41:47;13.47;46.04
74416;SHT31;62850;42.428;25.618;2023-04-06T11:44:12;13.38;46.23
74416;SHT31;62850;42.428;25.618;2023-04-06T11:46:38;13.33;46.69
74416;SHT31;62850;42.428;25.618;2023-04-06T11:49:03;13.33;46.92
74416;SHT31;62850;42.428;25.618;2023-04-06T11:51:29;13.27;46.40
74416;SHT31;62850;42.428;25.618;2023-04-06T11:53:55;13.24;46.09
74416;SHT31;62850;42.428;25.618;2023-04-06T11:56:25;13.08;47.21
74416;SHT31;62850;42.428;25.618;2023-04-06T11:58:55;13.02;47.74
74416;SHT31;62850;42.428;25.618;2023-04-06T12:01:21;13.10;46.66
74416;SHT31;62850;42.428;25.618;2023-04-06T12:03:46;13.10;46.37
74416;SHT31;62850;42.428;25.618;2023-04-06T12:06:12;13.03;46.53
74416;SHT31;62850;42.428;25.618;2023-04-06T12:08:37;12.97;47.86
74416;SHT31;62850;42.428;25.618;2023-04-06T12:11:03;12.92;46.28
74416;SHT31;62850;42.428;25.618;2023-04-06T12:13:28;12.92;46.65
74416;SHT31;62850;42.428;25.618;2023-04-06T12:15:54;12.73;46.02
74416;SHT31;62850;42.428;25.618;2023-04-06T12:18:19;12.62;46.37
74416;SHT31;62850;42.428;25.618;2023-04-06T12:20:45;12.57;46.51
74416;SHT31;62850;42.428;25.618;2023-04-06T12:23:10;12.60;45.96
74416;SHT31;62850;42.428;25.618;2023-04-06T12:25:36;12.62;46.53
74416;SHT31;62850;42.428;25.618;2023-04-06T12:28:04;12.65;47.32
74416;SHT31;62850;42.428;25.618;2023-04-06T12:30:29;12.59;47.40
74416;SHT31;62850;42.428;25.618;2023-04-06T12:32:55;12.38;47.80
74416;SHT31;62850;42.428;25.618;2023-04-06T12:35:21;12.29;47.87
74416;SHT31;62850;42.428;25.618;2023-04-06T12:37:46;12.36;47.80
74416;SHT31;62850;42.428;25.618;2023-04-06T12:40:12;12.39;47.44
74416;SHT31;62850;42.428;25.618;2023-04-06T12:42:40;12.44;47.64
74416;SHT31;62850;42.428;25.618;2023-04-06T12:45:08;12.31;48.24
74416;SHT31;62850;42.428;25.618;2023-04-06T12:47:34;12.38;48.18
74416;SHT31;62850;42.428;25.618;2023-04-06T12:50:02;12.35;47.94
74416;SHT31;62850;42.428;25.618;2023-04-06T12:52:27;12.18;47.67
74416;SHT31;62850;42.428;25.618;2023-04-06T12:54:56;12.26;48.25
74416;SHT31;62850;42.428;25.618;2023-04-06T12:57:21;12.32;48.88
74416;SHT31;62850;42.428;25.618;2023-04-06T12:59:48;12.17;49.96
74416;SHT31;62850;42.428;25.618;2023-04-06T13:02:13;12.10;50.39
74416;SHT31;62850;42.428;25.618;2023-04-06T13:04:40;11.91;50.92
74416;SHT31;62850;42.428;25.618;2023-04-06T13:07:05;12.04;50.58
74416;SHT31;62850;42.428;25.618;2023-04-06T13:09:31;12.13;50.54
74416;SHT31;62850;42.428;25.618;2023-04-06T13:11:56;11.97;51.07
74416;SHT31;62850;42.428;25.618;2023-04-06T13:14:21;11.99;51.00
74416;SHT31;62850;42.428;25.618;2023-04-06T13:16:47;12.15;50.86
74416;SHT31;62850;42.428;25.618;2023-04-06T13:19:13;12.18;51.29
74416;SHT31;62850;42.428;25.618;2023-04-06T13:21:39;12.26;50.75
74416;SHT31;62850;42.428;25.618;2023-04-06T13:24:04;12.39;50.37
74416;SHT31;62850;42.428;25.618;2023-04-06T13:26:30;12.92;48.85
74416;SHT31;62850;42.428;25.618;2023-04-06T13:28:56;13.44;47.24
74416;SHT31;62850;42.428;25.618;2023-04-06T13:31:22;13.93;45.86
74416;SHT31;62850;42.428;25.618;2023-04-06T13:33:48;14.37;44.54
74416;SHT31;62850;42.428;25.618;2023-04-06T13:36:13;14.54;44.37
74416;SHT31;62850;42.428;25.618;2023-04-06T13:38:39;14.43;45.24
74416;SHT31;62850;42.428;25.618;2023-04-06T13:41:05;14.26;44.93
74416;SHT31;62850;42.428;25.618;2023-04-06T13:43:31;14.14;45.37
74416;SHT31;62850;42.428;25.618;2023-04-06T13:45:57;14.27;45.80
74416;SHT31;62850;42.428;25.618;2023-04-06T13:48:25;13.96;43.41
74416;SHT31;62850;42.428;25.618;2023-04-06T13:50:51;13.98;44.02
74416;SHT31;62850;42.428;25.618;2023-04-06T13:53:17;13.90;44.80
74416;SHT31;62850;42.428;25.618;2023-04-06T13:55:42;13.93;45.05
74416;SHT31;62850;42.428;25.618;2023-04-06T13:58:08;13.92;45.00
74416;SHT31;62850;42.428;25.618;2023-04-06T14:00:34;13.96;44.55
74416;SHT31;62850;42.428;25.618;2023-04-06T14:03:00;13.57;44.62
74416;SHT31;62850;42.428;25.618;2023-04-06T14:05:26;13.45;44.28
74416;SHT31;62850;42.428;25.618;2023-04-06T14:07:53;13.27;44.94
74416;SHT31;62850;42.428;25.618;2023-04-06T14:10:19;13.31;45.16
74416;SHT31;62850;42.428;25.618;2023-04-06T14:12:47;13.34;46.08
74416;SHT31;62850;42.428;25.618;2023-04-06T14:15:13;13.24;45.66
74416;SHT31;62850;42.428;25.618;2023-04-06T14:17:39;13.14;45.69
74416;SHT31;62850;42.428;25.618;2023-04-06T14:20:07;13.07;46.18
74416;SHT31;62850;42.428;25.618;2023-04-06T14:22:39;13.06;46.39
74416;SHT31;62850;42.428;25.618;2023-04-06T14:25:04;13.07;46.90
74416;SHT31;62850;42.428;25.618;2023-04-06T14:27:30;12.93;47.19
74416;SHT31;62850;42.428;25.618;2023-04-06T14:29:55;12.87;48.08
74416;SHT31;62850;42.428;25.618;2023-04-06T14:32:21;12.82;48.38
74416;SHT31;62850;42.428;25.618;2023-04-06T14:34:47;12.79;47.92
74416;SHT31;62850;42.428;25.618;2023-04-06T14:37:12;12.82;47.88
74416;SHT31;62850;42.428;25.618;2023-04-06T14:39:38;12.73;48.19
74416;SHT31;62850;42.428;25.618;2023-04-06T14:42:03;12.63;48.54
74416;SHT31;62850;42.428;25.618;2023-04-06T14:44:28;12.66;48.76
74416;SHT31;62850;42.428;25.618;2023-04-06T14:46:54;12.63;48.44
74416;SHT31;62850;42.428;25.618;2023-04-06T14:49:20;12.49;48.75
74416;SHT31;62850;42.428;25.618;2023-04-06T14:51:45;12.38;49.36
74416;SHT31;62850;42.428;25.618;2023-04-06T14:54:11;12.25;50.14
74416;SHT31;62850;42.428;25.618;2023-04-06T14:56:37;12.18;50.60
74416;SHT31;62850;42.428;25.618;2023-04-06T14:59:03;11.93;50.86
74416;SHT31;62850;42.428;25.618;2023-04-06T15:01:33;11.86;51.38
74416;SHT31;62850;42.428;25.618;2023-04-06T15:03:59;11.87;51.86
74416;SHT31;62850;42.428;25.618;2023-04-06T15:06:24;11.93;51.52
74416;SHT31;62850;42.428;25.618;2023-04-06T15:08:50;11.88;51.83
74416;SHT31;62850;42.428;25.618;2023-04-06T15:11:16;11.81;52.15
74416;SHT31;62850;42.428;25.618;2023-04-06T15:13:41;11.83;52.28
74416;SHT31;62850;42.428;25.618;2023-04-06T15:16:07;11.80;51.98
74416;SHT31;62850;42.428;25.618;2023-04-06T15:18:33;11.77;52.11
74416;SHT31;62850;42.428;25.618;2023-04-06T15:21:00;11.73;52.36
74416;SHT31;62850;42.428;25.618;2023-04-06T15:23:25;11.73;52.08
74416;SHT31;62850;42.428;25.618;2023-04-06T15:25:54;11.62;52.40
74416;SHT31;62850;42.428;25.618;2023-04-06T15:28:20;11.59;52.02
74416;SHT31;62850;42.428;25.618;2023-04-06T15:30:46;11.53;52.99
74416;SHT31;62850;42.428;25.618;2023-04-06T15:33:11;11.52;52.89